sensor_id;sensor_type;location;lat;lon;timestamp;P1;durP1;ratioP1;P2;durP2;ratioP2
23628;SDS011;11991;57.150;-2.134;2023-04-25T00:01:26;5.67;;;2.30;;
23628;SDS011;11991;57.150;-2.134;2023-04-25T00:03:53;6.40;;;2.47;;
23628;SDS011;11991;57.150;-2.134;2023-04-25T00:06:21;4.63;;;2.30;;
23628;SDS011;11991;57.150;-2.134;2023-04-25T00:08:52;3.37;;;2.17;;
23628;SDS011;11991;57.150;-2.134;2023-04-25T00:11:20;3.77;;;2.30;;
23628;SDS011;11991;57.150;-2.134;2023-04-25T00:13:47;3.40;;;2.23;;
23628;SDS011;11991;57.150;-2.134;2023-04-25T00:16:16;3.97;;;2.00;;
23628;SDS011;11991;57.150;-2.134;2023-04-25T00:18:44;6.20;;;2.53;;
23628;SDS011;11991;57.150;-2.134;2023-04-25T00:21:13;2.57;;;1.97;;
23628;SDS011;11991;57.150;-2.134;2023-04-25T00:23:40;3.53;;;1.67;;
23628;SDS011;11991;57.150;-2.134;2023-04-25T00:26:08;3.87;;;1.83;;
23628;SDS011;11991;57.150;-2.134;2023-04-25T00:28:35;4.83;;;2.03;;
23628;SDS011;11991;57.150;-2.134;2023-04-25T00:31:02;3.20;;;1.53;;
23628;SDS011;11991;57.150;-2.134;2023-04-25T00:33:29;3.10;;;1.70;;
23628;SDS011;11991;57.150;-2.134;2023-04-25T00:35:57;2.60;;;1.63;;
23628;SDS011;11991;57.150;-2.134;2023-04-25T00:38:24;2.10;;;1.67;;
23628;SDS011;11991;57.150;-2.134;2023-04-25T00:40:51;4.37;;;2.17;;
23628;SDS011;11991;57.150;-2.134;2023-04-25T00:43:19;3.33;;;1.63;;
23628;SDS011;11991;57.150;-2.134;2023-04-25T00:45:47;3.53;;;1.90;;
23628;SDS011;11991;57.150;-2.134;2023-04-25T00:48:16;4.43;;;2.03;;
23628;SDS011;11991;57.150;-2.134;2023-04-25T00:50:51;2.97;;;1.33;;
23628;SDS011;11991;57.150;-2.134;2023-04-25T00:53:21;5.33;;;2.00;;
23628;SDS011;11991;57.150;-2.134;2023-04-25T00:55:49;3.97;;;2.10;;
23628;SDS011;11991;57.150;-2.134;2023-04-25T00:58:18;3.47;;;1.63;;
23628;SDS011;11991;57.150;-2.134;2023-04-25T01:00:49;2.80;;;1.33;;
23628;SDS011;11991;57.150;-2.134;2023-04-25T01:03:18;4.10;;;1.50;;
23628;SDS011;11991;57.150;-2.134;2023-04-25T01:05:47;6.70;;;2.00;;
23628;SDS011;11991;57.150;-2.134;2023-04-25T01:08:14;4.53;;;1.43;;
23628;SDS011;11991;57.150;-2.134;2023-04-25T01:10:42;1.73;;;1.10;;
23628;SDS011;11991;57.150;-2.134;2023-04-25T01:13:09;4.97;;;2.47;;
23628;SDS011;11991;57.150;-2.134;2023-04-25T01:15:36;3.13;;;1.70;;
23628;SDS011;11991;57.150;-2.134;2023-04-25T01:18:05;1.30;;;1.20;;
23628;SDS011;11991;57.150;-2.134;2023-04-25T01:20:33;3.13;;;1.20;;
23628;SDS011;11991;57.150;-2.134;2023-04-25T01:23:01;1.93;;;1.20;;
23628;SDS011;11991;57.150;-2.134;2023-04-25T01:25:30;1.90;;;1.27;;
23628;SDS011;11991;57.150;-2.134;2023-04-25T01:27:58;5.33;;;1.63;;
23628;SDS011;11991;57.150;-2.134;2023-04-25T01:30:26;1.73;;;1.30;;
23628;SDS011;11991;57.150;-2.134;2023-04-25T01:32:55;1.53;;;1.37;;
23628;SDS011;11991;57.150;-2.134;2023-04-25T01:35:23;1.90;;;1.10;;
23628;SDS011;11991;57.150;-2.134;2023-04-25T01:37:53;3.27;;;1.67;;
23628;SDS011;11991;57.150;-2.134;2023-04-25T01:40:20;3.13;;;1.30;;
23628;SDS011;11991;57.150;-2.134;2023-04-25T01:42:49;2.60;;;1.60;;
23628;SDS011;11991;57.150;-2.134;2023-04-25T01:45:18;4.63;;;2.00;;
23628;SDS011;11991;57.150;-2.134;2023-04-25T01:47:45;3.47;;;1.70;;
23628;SDS011;11991;57.150;-2.134;2023-04-25T01:50:18;3.33;;;1.40;;
23628;SDS011;11991;57.150;-2.134;2023-04-25T01:52:46;1.17;;;1.03;;
23628;SDS011;11991;57.150;-2.134;2023-04-25T01:55:15;4.30;;;1.47;;
23628;SDS011;11991;57.150;-2.134;2023-04-25T01:57:52;1.80;;;1.60;;
23628;SDS011;11991;57.150;-2.134;2023-04-25T02:00:26;2.07;;;1.87;;
23628;SDS011;11991;57.150;-2.134;2023-04-25T02:02:57;3.77;;;1.60;;
23628;SDS011;11991;57.150;-2.134;2023-04-25T02:05:33;4.10;;;1.60;;
23628;SDS011;11991;57.150;-2.134;2023-04-25T02:08:04;2.17;;;1.50;;
23628;SDS011;11991;57.150;-2.134;2023-04-25T02:10:33;2.50;;;1.40;;
23628;SDS011;11991;57.150;-2.134;2023-04-25T02:13:08;4.90;;;2.00;;
23628;SDS011;11991;57.150;-2.134;2023-04-25T02:15:44;3.70;;;1.40;;
23628;SDS011;11991;57.150;-2.134;2023-04-25T02:18:17;2.33;;;1.60;;
23628;SDS011;11991;57.150;-2.134;2023-04-25T02:20:44;3.97;;;1.90;;
23628;SDS011;11991;57.150;-2.134;2023-04-25T02:23:12;3.70;;;1.73;;
23628;SDS011;11991;57.150;-2.134;2023-04-25T02:25:41;2.50;;;1.97;;
23628;SDS011;11991;57.150;-2.134;2023-04-25T02:28:08;3.17;;;1.70;;
23628;SDS011;11991;57.150;-2.134;2023-04-25T02:30:37;2.67;;;1.63;;
23628;SDS011;11991;57.150;-2.134;2023-04-25T02:33:04;2.97;;;1.57;;
23628;SDS011;11991;57.150;-2.134;2023-04-25T02:35:31;4.93;;;1.93;;
23628;SDS011;11991;57.150;-2.134;2023-04-25T02:37:59;1.87;;;1.50;;
23628;SDS011;11991;57.150;-2.134;2023-04-25T02:40:26;4.27;;;1.90;;
23628;SDS011;11991;57.150;-2.134;2023-04-25T02:42:53;3.23;;;1.40;;
23628;SDS011;11991;57.150;-2.134;2023-04-25T02:45:21;2.03;;;1.17;;
23628;SDS011;11991;57.150;-2.134;2023-04-25T02:47:48;1.83;;;0.90;;
23628;SDS011;11991;57.150;-2.134;2023-04-25T02:50:18;2.30;;;1.90;;
23628;SDS011;11991;57.150;-2.134;2023-04-25T02:52:45;3.57;;;1.67;;
23628;SDS011;11991;57.150;-2.134;2023-04-25T02:55:16;2.80;;;1.57;;
23628;SDS011;11991;57.150;-2.134;2023-04-25T02:57:44;8.23;;;1.97;;
23628;SDS011;11991;57.150;-2.134;2023-04-25T03:00:18;5.23;;;2.00;;
23628;SDS011;11991;57.150;-2.134;2023-04-25T03:02:46;2.63;;;1.77;;
23628;SDS011;11991;57.150;-2.134;2023-04-25T03:05:13;2.43;;;1.53;;
23628;SDS011;11991;57.150;-2.134;2023-04-25T03:07:40;4.50;;;1.20;;
23628;SDS011;11991;57.150;-2.134;2023-04-25T03:10:09;4.97;;;1.60;;
23628;SDS011;11991;57.150;-2.134;2023-04-25T03:12:37;1.73;;;1.17;;
23628;SDS011;11991;57.150;-2.134;2023-04-25T03:15:04;1.73;;;1.33;;
23628;SDS011;11991;57.150;-2.134;2023-04-25T03:17:32;1.80;;;1.30;;
23628;SDS011;11991;57.150;-2.134;2023-04-25T03:19:59;3.23;;;1.20;;
23628;SDS011;11991;57.150;-2.134;2023-04-25T03:22:27;1.87;;;1.20;;
23628;SDS011;11991;57.150;-2.134;2023-04-25T03:24:55;1.27;;;1.10;;
23628;SDS011;11991;57.150;-2.134;2023-04-25T03:27:22;3.63;;;1.37;;
23628;SDS011;11991;57.150;-2.134;2023-04-25T03:29:50;1.40;;;1.20;;
23628;SDS011;11991;57.150;-2.134;2023-04-25T03:32:18;1.63;;;1.13;;
23628;SDS011;11991;57.150;-2.134;2023-04-25T03:34:45;0.97;;;0.90;;
23628;SDS011;11991;57.150;-2.134;2023-04-25T03:37:12;0.90;;;0.90;;
23628;SDS011;11991;57.150;-2.134;2023-04-25T03:39:40;1.43;;;1.03;;
23628;SDS011;11991;57.150;-2.134;2023-04-25T03:42:07;1.27;;;1.00;;
23628;SDS011;11991;57.150;-2.134;2023-04-25T03:44:34;1.07;;;0.93;;
23628;SDS011;11991;57.150;-2.134;2023-04-25T03:47:02;2.13;;;1.00;;
23628;SDS011;11991;57.150;-2.134;2023-04-25T03:49:29;1.43;;;0.90;;
23628;SDS011;11991;57.150;-2.134;2023-04-25T03:52:00;2.63;;;1.23;;
23628;SDS011;11991;57.150;-2.134;2023-04-25T03:54:33;3.63;;;1.57;;
23628;SDS011;11991;57.150;-2.134;2023-04-25T03:57:14;2.33;;;1.30;;
23628;SDS011;11991;57.150;-2.134;2023-04-25T03:59:42;1.60;;;1.40;;
23628;SDS011;11991;57.150;-2.134;2023-04-25T04:02:11;3.27;;;1.50;;
23628;SDS011;11991;57.150;-2.134;2023-04-25T04:04:39;1.77;;;0.90;;
23628;SDS011;11991;57.150;-2.134;2023-04-25T04:07:08;3.50;;;1.23;;
23628;SDS011;11991;57.150;-2.134;2023-04-25T04:09:39;2.10;;;1.30;;
23628;SDS011;11991;57.150;-2.134;2023-04-25T04:12:12;2.73;;;1.43;;
23628;SDS011;11991;57.150;-2.134;2023-04-25T04:14:40;1.40;;;1.10;;
23628;SDS011;11991;57.150;-2.134;2023-04-25T04:17:07;3.27;;;1.50;;
23628;SDS011;11991;57.150;-2.134;2023-04-25T04:19:34;2.73;;;1.43;;
23628;SDS011;11991;57.150;-2.134;2023-04-25T04:22:15;2.70;;;1.97;;
23628;SDS011;11991;57.150;-2.134;2023-04-25T04:24:42;1.87;;;1.20;;
23628;SDS011;11991;57.150;-2.134;2023-04-25T04:27:18;3.83;;;1.37;;
23628;SDS011;11991;57.150;-2.134;2023-04-25T04:29:59;2.23;;;1.20;;
23628;SDS011;11991;57.150;-2.134;2023-04-25T04:32:33;3.63;;;1.73;;
23628;SDS011;11991;57.150;-2.134;2023-04-25T04:35:02;2.50;;;1.43;;
23628;SDS011;11991;57.150;-2.134;2023-04-25T04:37:30;3.53;;;1.40;;
23628;SDS011;11991;57.150;-2.134;2023-04-25T04:39:59;1.27;;;1.00;;
23628;SDS011;11991;57.150;-2.134;2023-04-25T04:42:42;2.13;;;1.20;;
23628;SDS011;11991;57.150;-2.134;2023-04-25T04:45:20;1.60;;;1.10;;
23628;SDS011;11991;57.150;-2.134;2023-04-25T04:48:00;1.73;;;1.00;;
23628;SDS011;11991;57.150;-2.134;2023-04-25T04:50:53;1.77;;;1.00;;
23628;SDS011;11991;57.150;-2.134;2023-04-25T04:53:41;1.63;;;1.30;;
23628;SDS011;11991;57.150;-2.134;2023-04-25T04:56:28;1.67;;;1.20;;
23628;SDS011;11991;57.150;-2.134;2023-04-25T04:59:16;1.70;;;1.10;;
23628;SDS011;11991;57.150;-2.134;2023-04-25T05:02:01;1.87;;;1.47;;
23628;SDS011;11991;57.150;-2.134;2023-04-25T05:04:46;2.50;;;1.40;;
23628;SDS011;11991;57.150;-2.134;2023-04-25T05:07:29;2.50;;;1.33;;
23628;SDS011;11991;57.150;-2.134;2023-04-25T05:10:17;2.90;;;1.10;;
23628;SDS011;11991;57.150;-2.134;2023-04-25T05:13:17;2.63;;;1.17;;
23628;SDS011;11991;57.150;-2.134;2023-04-25T05:16:04;2.10;;;1.37;;
23628;SDS011;11991;57.150;-2.134;2023-04-25T05:18:58;2.33;;;1.10;;
23628;SDS011;11991;57.150;-2.134;2023-04-25T05:21:40;3.00;;;1.20;;
23628;SDS011;11991;57.150;-2.134;2023-04-25T05:24:28;3.03;;;1.20;;
23628;SDS011;11991;57.150;-2.134;2023-04-25T05:27:24;1.77;;;1.00;;
23628;SDS011;11991;57.150;-2.134;2023-04-25T05:30:01;4.20;;;1.50;;
23628;SDS011;11991;57.150;-2.134;2023-04-25T05:32:56;2.07;;;1.50;;
23628;SDS011;11991;57.150;-2.134;2023-04-25T05:35:26;4.63;;;1.50;;
23628;SDS011;11991;57.150;-2.134;2023-04-25T05:37:54;2.67;;;1.57;;
23628;SDS011;11991;57.150;-2.134;2023-04-25T05:40:33;2.20;;;1.40;;
23628;SDS011;11991;57.150;-2.134;2023-04-25T05:43:15;1.53;;;1.10;;
23628;SDS011;11991;57.150;-2.134;2023-04-25T05:45:49;3.23;;;1.50;;
23628;SDS011;11991;57.150;-2.134;2023-04-25T05:48:39;2.10;;;1.50;;
23628;SDS011;11991;57.150;-2.134;2023-04-25T05:51:30;1.37;;;1.10;;
23628;SDS011;11991;57.150;-2.134;2023-04-25T05:54:25;2.67;;;1.43;;
23628;SDS011;11991;57.150;-2.134;2023-04-25T05:56:54;2.33;;;1.37;;
23628;SDS011;11991;57.150;-2.134;2023-04-25T05:59:22;3.13;;;1.60;;
23628;SDS011;11991;57.150;-2.134;2023-04-25T06:01:50;2.20;;;1.67;;
23628;SDS011;11991;57.150;-2.134;2023-04-25T06:04:19;2.03;;;1.40;;
23628;SDS011;11991;57.150;-2.134;2023-04-25T06:06:47;3.00;;;1.73;;
23628;SDS011;11991;57.150;-2.134;2023-04-25T06:09:14;2.83;;;1.60;;
23628;SDS011;11991;57.150;-2.134;2023-04-25T06:11:41;4.23;;;1.83;;
23628;SDS011;11991;57.150;-2.134;2023-04-25T06:14:09;2.83;;;1.30;;
23628;SDS011;11991;57.150;-2.134;2023-04-25T06:16:41;2.53;;;1.37;;
23628;SDS011;11991;57.150;-2.134;2023-04-25T06:19:09;3.27;;;1.60;;
23628;SDS011;11991;57.150;-2.134;2023-04-25T06:21:36;2.13;;;1.40;;
23628;SDS011;11991;57.150;-2.134;2023-04-25T06:24:04;3.83;;;1.60;;
23628;SDS011;11991;57.150;-2.134;2023-04-25T06:26:31;2.93;;;1.63;;
23628;SDS011;11991;57.150;-2.134;2023-04-25T06:28:58;2.50;;;1.80;;
23628;SDS011;11991;57.150;-2.134;2023-04-25T06:31:26;2.43;;;1.60;;
23628;SDS011;11991;57.150;-2.134;2023-04-25T06:33:54;3.43;;;1.40;;
23628;SDS011;11991;57.150;-2.134;2023-04-25T06:36:23;2.87;;;1.53;;
23628;SDS011;11991;57.150;-2.134;2023-04-25T06:38:54;2.83;;;1.60;;
23628;SDS011;11991;57.150;-2.134;2023-04-25T06:41:22;5.07;;;1.83;;
23628;SDS011;11991;57.150;-2.134;2023-04-25T06:43:49;3.10;;;1.40;;
23628;SDS011;11991;57.150;-2.134;2023-04-25T06:46:31;1.20;;;1.00;;
23628;SDS011;11991;57.150;-2.134;2023-04-25T06:48:59;2.20;;;1.17;;
23628;SDS011;11991;57.150;-2.134;2023-04-25T06:51:27;1.90;;;1.30;;
23628;SDS011;11991;57.150;-2.134;2023-04-25T06:53:56;3.17;;;1.60;;
23628;SDS011;11991;57.150;-2.134;2023-04-25T06:56:33;2.43;;;1.23;;
23628;SDS011;11991;57.150;-2.134;2023-04-25T06:59:06;1.80;;;1.30;;
23628;SDS011;11991;57.150;-2.134;2023-04-25T07:01:38;6.13;;;1.80;;
23628;SDS011;11991;57.150;-2.134;2023-04-25T07:04:16;3.30;;;1.37;;
23628;SDS011;11991;57.150;-2.134;2023-04-25T07:06:55;3.27;;;1.47;;
23628;SDS011;11991;57.150;-2.134;2023-04-25T07:09:31;4.03;;;2.17;;
23628;SDS011;11991;57.150;-2.134;2023-04-25T07:12:00;1.57;;;1.40;;
23628;SDS011;11991;57.150;-2.134;2023-04-25T07:14:28;2.37;;;1.27;;
23628;SDS011;11991;57.150;-2.134;2023-04-25T07:16:55;2.83;;;1.50;;
23628;SDS011;11991;57.150;-2.134;2023-04-25T07:19:25;2.50;;;1.03;;
23628;SDS011;11991;57.150;-2.134;2023-04-25T07:21:55;2.40;;;1.47;;
23628;SDS011;11991;57.150;-2.134;2023-04-25T07:24:23;3.10;;;1.27;;
23628;SDS011;11991;57.150;-2.134;2023-04-25T07:26:52;2.17;;;1.70;;
23628;SDS011;11991;57.150;-2.134;2023-04-25T07:29:41;1.60;;;0.90;;
23628;SDS011;11991;57.150;-2.134;2023-04-25T07:32:08;2.43;;;0.70;;
23628;SDS011;11991;57.150;-2.134;2023-04-25T07:34:41;2.83;;;1.20;;
23628;SDS011;11991;57.150;-2.134;2023-04-25T07:37:08;2.87;;;1.00;;
23628;SDS011;11991;57.150;-2.134;2023-04-25T07:39:47;2.20;;;1.10;;
23628;SDS011;11991;57.150;-2.134;2023-04-25T07:42:15;1.73;;;0.93;;
23628;SDS011;11991;57.150;-2.134;2023-04-25T07:44:44;1.67;;;1.00;;
23628;SDS011;11991;57.150;-2.134;2023-04-25T07:47:13;2.27;;;1.00;;
23628;SDS011;11991;57.150;-2.134;2023-04-25T07:49:41;1.17;;;1.03;;
23628;SDS011;11991;57.150;-2.134;2023-04-25T07:52:09;2.30;;;1.70;;
23628;SDS011;11991;57.150;-2.134;2023-04-25T07:54:42;1.27;;;1.10;;
23628;SDS011;11991;57.150;-2.134;2023-04-25T07:57:16;2.07;;;1.20;;
23628;SDS011;11991;57.150;-2.134;2023-04-25T07:59:47;3.37;;;1.80;;
23628;SDS011;11991;57.150;-2.134;2023-04-25T08:02:15;4.97;;;1.50;;
23628;SDS011;11991;57.150;-2.134;2023-04-25T08:04:43;2.60;;;1.20;;
23628;SDS011;11991;57.150;-2.134;2023-04-25T08:07:15;3.00;;;1.30;;
23628;SDS011;11991;57.150;-2.134;2023-04-25T08:09:51;2.43;;;1.37;;
23628;SDS011;11991;57.150;-2.134;2023-04-25T08:12:26;1.83;;;1.17;;
23628;SDS011;11991;57.150;-2.134;2023-04-25T08:14:53;2.07;;;1.23;;
23628;SDS011;11991;57.150;-2.134;2023-04-25T08:17:23;2.20;;;1.00;;
23628;SDS011;11991;57.150;-2.134;2023-04-25T08:19:50;3.90;;;1.37;;
23628;SDS011;11991;57.150;-2.134;2023-04-25T08:22:29;2.63;;;1.57;;
23628;SDS011;11991;57.150;-2.134;2023-04-25T08:25:24;4.00;;;1.47;;
23628;SDS011;11991;57.150;-2.134;2023-04-25T08:27:52;3.33;;;1.60;;
23628;SDS011;11991;57.150;-2.134;2023-04-25T08:30:21;7.53;;;1.77;;
23628;SDS011;11991;57.150;-2.134;2023-04-25T08:32:49;2.33;;;1.40;;
23628;SDS011;11991;57.150;-2.134;2023-04-25T08:35:35;4.53;;;1.50;;
23628;SDS011;11991;57.150;-2.134;2023-04-25T08:38:03;4.03;;;1.60;;
23628;SDS011;11991;57.150;-2.134;2023-04-25T08:40:31;2.70;;;1.83;;
23628;SDS011;11991;57.150;-2.134;2023-04-25T08:43:17;2.03;;;1.40;;
23628;SDS011;11991;57.150;-2.134;2023-04-25T08:45:46;3.70;;;1.50;;
23628;SDS011;11991;57.150;-2.134;2023-04-25T08:48:28;3.60;;;1.67;;
23628;SDS011;11991;57.150;-2.134;2023-04-25T08:51:03;3.13;;;1.63;;
23628;SDS011;11991;57.150;-2.134;2023-04-25T08:53:34;3.83;;;1.13;;
23628;SDS011;11991;57.150;-2.134;2023-04-25T08:56:04;2.10;;;1.43;;
23628;SDS011;11991;57.150;-2.134;2023-04-25T08:58:35;1.53;;;1.30;;
23628;SDS011;11991;57.150;-2.134;2023-04-25T09:01:03;2.67;;;1.70;;
23628;SDS011;11991;57.150;-2.134;2023-04-25T09:03:38;2.37;;;1.30;;
23628;SDS011;11991;57.150;-2.134;2023-04-25T09:06:05;1.70;;;0.93;;
23628;SDS011;11991;57.150;-2.134;2023-04-25T09:08:33;1.47;;;1.07;;
23628;SDS011;11991;57.150;-2.134;2023-04-25T09:11:02;2.07;;;1.87;;
23628;SDS011;11991;57.150;-2.134;2023-04-25T09:13:30;4.73;;;2.37;;
23628;SDS011;11991;57.150;-2.134;2023-04-25T09:19:46;1.30;;;1.00;;
23628;SDS011;11991;57.150;-2.134;2023-04-25T09:22:19;1.40;;;1.20;;
23628;SDS011;11991;57.150;-2.134;2023-04-25T09:24:49;3.13;;;0.90;;
23628;SDS011;11991;57.150;-2.134;2023-04-25T09:27:20;1.00;;;0.90;;
23628;SDS011;11991;57.150;-2.134;2023-04-25T09:29:58;3.33;;;1.00;;
23628;SDS011;11991;57.150;-2.134;2023-04-25T09:33:05;1.30;;;1.20;;
23628;SDS011;11991;57.150;-2.134;2023-04-25T09:35:38;1.23;;;1.13;;
23628;SDS011;11991;57.150;-2.134;2023-04-25T09:38:18;1.53;;;1.10;;
23628;SDS011;11991;57.150;-2.134;2023-04-25T09:44:15;3.07;;;1.20;;
23628;SDS011;11991;57.150;-2.134;2023-04-25T09:46:50;3.40;;;1.70;;
23628;SDS011;11991;57.150;-2.134;2023-04-25T09:49:23;2.60;;;1.70;;
23628;SDS011;11991;57.150;-2.134;2023-04-25T09:52:03;1.70;;;1.43;;
23628;SDS011;11991;57.150;-2.134;2023-04-25T09:54:36;5.67;;;4.07;;
23628;SDS011;11991;57.150;-2.134;2023-04-25T09:59:44;3.23;;;2.00;;
23628;SDS011;11991;57.150;-2.134;2023-04-25T10:02:14;3.77;;;2.10;;
23628;SDS011;11991;57.150;-2.134;2023-04-25T10:04:44;3.47;;;2.00;;
23628;SDS011;11991;57.150;-2.134;2023-04-25T10:07:23;2.43;;;2.23;;
23628;SDS011;11991;57.150;-2.134;2023-04-25T10:09:54;3.63;;;2.43;;
23628;SDS011;11991;57.150;-2.134;2023-04-25T10:12:27;3.97;;;1.60;;
23628;SDS011;11991;57.150;-2.134;2023-04-25T10:14:54;7.00;;;4.43;;
23628;SDS011;11991;57.150;-2.134;2023-04-25T10:17:25;5.67;;;3.97;;
23628;SDS011;11991;57.150;-2.134;2023-04-25T10:19:56;7.50;;;3.73;;
23628;SDS011;11991;57.150;-2.134;2023-04-25T10:22:34;3.75;;;2.58;;
23628;SDS011;11991;57.150;-2.134;2023-04-25T10:25:04;7.57;;;2.83;;
23628;SDS011;11991;57.150;-2.134;2023-04-25T10:27:33;8.83;;;4.37;;
23628;SDS011;11991;57.150;-2.134;2023-04-25T10:30:01;3.83;;;2.43;;
23628;SDS011;11991;57.150;-2.134;2023-04-25T10:32:38;4.85;;;2.08;;
23628;SDS011;11991;57.150;-2.134;2023-04-25T10:35:13;5.95;;;2.42;;
23628;SDS011;11991;57.150;-2.134;2023-04-25T10:38:00;4.63;;;2.45;;
23628;SDS011;11991;57.150;-2.134;2023-04-25T10:40:35;3.60;;;1.70;;
23628;SDS011;11991;57.150;-2.134;2023-04-25T10:46:01;3.97;;;1.75;;
23628;SDS011;11991;57.150;-2.134;2023-04-25T10:48:30;4.47;;;1.50;;
23628;SDS011;11991;57.150;-2.134;2023-04-25T10:51:11;4.20;;;1.73;;
23628;SDS011;11991;57.150;-2.134;2023-04-25T10:54:01;3.55;;;1.33;;
23628;SDS011;11991;57.150;-2.134;2023-04-25T10:56:31;3.83;;;1.42;;
23628;SDS011;11991;57.150;-2.134;2023-04-25T10:59:11;2.50;;;1.63;;
23628;SDS011;11991;57.150;-2.134;2023-04-25T11:01:43;3.50;;;1.30;;
23628;SDS011;11991;57.150;-2.134;2023-04-25T11:09:45;4.25;;;1.67;;
23628;SDS011;11991;57.150;-2.134;2023-04-25T11:12:12;4.65;;;1.90;;
23628;SDS011;11991;57.150;-2.134;2023-04-25T11:14:40;4.70;;;2.00;;
23628;SDS011;11991;57.150;-2.134;2023-04-25T11:17:07;2.75;;;1.20;;
23628;SDS011;11991;57.150;-2.134;2023-04-25T11:19:35;4.13;;;1.47;;
23628;SDS011;11991;57.150;-2.134;2023-04-25T11:22:03;2.45;;;1.30;;
23628;SDS011;11991;57.150;-2.134;2023-04-25T11:24:30;3.42;;;2.10;;
23628;SDS011;11991;57.150;-2.134;2023-04-25T11:26:59;9.40;;;6.15;;
23628;SDS011;11991;57.150;-2.134;2023-04-25T11:29:32;7.87;;;4.70;;
23628;SDS011;11991;57.150;-2.134;2023-04-25T11:32:00;3.10;;;2.67;;
23628;SDS011;11991;57.150;-2.134;2023-04-25T11:34:29;4.07;;;3.13;;
23628;SDS011;11991;57.150;-2.134;2023-04-25T11:36:57;5.10;;;2.47;;
23628;SDS011;11991;57.150;-2.134;2023-04-25T11:39:25;2.87;;;1.60;;
23628;SDS011;11991;57.150;-2.134;2023-04-25T11:41:54;2.80;;;1.80;;
23628;SDS011;11991;57.150;-2.134;2023-04-25T11:44:22;3.53;;;2.17;;
23628;SDS011;11991;57.150;-2.134;2023-04-25T11:46:49;2.65;;;1.60;;
23628;SDS011;11991;57.150;-2.134;2023-04-25T11:49:17;3.78;;;1.80;;
23628;SDS011;11991;57.150;-2.134;2023-04-25T11:51:45;3.67;;;1.63;;
23628;SDS011;11991;57.150;-2.134;2023-04-25T11:54:14;4.10;;;1.42;;
23628;SDS011;11991;57.150;-2.134;2023-04-25T11:56:43;2.85;;;1.67;;
23628;SDS011;11991;57.150;-2.134;2023-04-25T11:59:11;2.17;;;1.63;;
23628;SDS011;11991;57.150;-2.134;2023-04-25T12:01:47;1.85;;;1.20;;
23628;SDS011;11991;57.150;-2.134;2023-04-25T12:04:19;1.60;;;1.30;;
23628;SDS011;11991;57.150;-2.134;2023-04-25T12:06:54;3.22;;;1.30;;
23628;SDS011;11991;57.150;-2.134;2023-04-25T12:09:29;1.45;;;1.23;;
23628;SDS011;11991;57.150;-2.134;2023-04-25T12:11:58;2.72;;;1.80;;
23628;SDS011;11991;57.150;-2.134;2023-04-25T12:14:30;2.20;;;1.30;;
23628;SDS011;11991;57.150;-2.134;2023-04-25T12:17:00;2.55;;;1.55;;
23628;SDS011;11991;57.150;-2.134;2023-04-25T12:19:36;2.70;;;1.73;;
23628;SDS011;11991;57.150;-2.134;2023-04-25T12:22:20;5.47;;;1.90;;
23628;SDS011;11991;57.150;-2.134;2023-04-25T12:24:49;5.57;;;2.00;;
23628;SDS011;11991;57.150;-2.134;2023-04-25T12:27:16;2.38;;;1.25;;
23628;SDS011;11991;57.150;-2.134;2023-04-25T12:29:52;3.15;;;1.45;;
23628;SDS011;11991;57.150;-2.134;2023-04-25T12:32:21;2.45;;;1.50;;
23628;SDS011;11991;57.150;-2.134;2023-04-25T12:34:49;4.45;;;2.35;;
23628;SDS011;11991;57.150;-2.134;2023-04-25T12:37:16;3.35;;;1.70;;
23628;SDS011;11991;57.150;-2.134;2023-04-25T12:39:43;2.15;;;1.55;;
23628;SDS011;11991;57.150;-2.134;2023-04-25T12:42:10;4.88;;;1.83;;
23628;SDS011;11991;57.150;-2.134;2023-04-25T12:44:39;4.20;;;3.03;;
23628;SDS011;11991;57.150;-2.134;2023-04-25T12:47:06;3.13;;;1.67;;
23628;SDS011;11991;57.150;-2.134;2023-04-25T12:49:34;2.60;;;1.48;;
23628;SDS011;11991;57.150;-2.134;2023-04-25T12:52:01;4.13;;;1.60;;
23628;SDS011;11991;57.150;-2.134;2023-04-25T12:54:29;2.95;;;1.50;;
23628;SDS011;11991;57.150;-2.134;2023-04-25T12:56:56;1.95;;;1.70;;
23628;SDS011;11991;57.150;-2.134;2023-04-25T12:59:23;3.03;;;1.90;;
23628;SDS011;11991;57.150;-2.134;2023-04-25T13:01:50;4.53;;;2.10;;
23628;SDS011;11991;57.150;-2.134;2023-04-25T13:04:18;4.38;;;2.00;;
23628;SDS011;11991;57.150;-2.134;2023-04-25T13:06:47;3.25;;;2.10;;
23628;SDS011;11991;57.150;-2.134;2023-04-25T13:09:15;3.85;;;1.90;;
23628;SDS011;11991;57.150;-2.134;2023-04-25T13:11:42;5.03;;;3.35;;
23628;SDS011;11991;57.150;-2.134;2023-04-25T13:14:09;6.75;;;3.95;;
23628;SDS011;11991;57.150;-2.134;2023-04-25T13:16:37;6.05;;;3.20;;
23628;SDS011;11991;57.150;-2.134;2023-04-25T13:19:04;4.13;;;2.42;;
23628;SDS011;11991;57.150;-2.134;2023-04-25T13:21:34;4.78;;;2.20;;
23628;SDS011;11991;57.150;-2.134;2023-04-25T13:24:01;4.20;;;1.70;;
23628;SDS011;11991;57.150;-2.134;2023-04-25T13:26:28;2.70;;;1.52;;
23628;SDS011;11991;57.150;-2.134;2023-04-25T13:28:55;4.80;;;2.22;;
23628;SDS011;11991;57.150;-2.134;2023-04-25T13:31:27;3.67;;;2.28;;
23628;SDS011;11991;57.150;-2.134;2023-04-25T13:33:54;3.53;;;1.88;;
23628;SDS011;11991;57.150;-2.134;2023-04-25T13:36:21;3.30;;;2.00;;
23628;SDS011;11991;57.150;-2.134;2023-04-25T13:38:49;3.50;;;2.10;;
23628;SDS011;11991;57.150;-2.134;2023-04-25T13:41:16;4.20;;;1.80;;
23628;SDS011;11991;57.150;-2.134;2023-04-25T13:43:46;4.95;;;2.47;;
23628;SDS011;11991;57.150;-2.134;2023-04-25T13:46:15;3.38;;;2.22;;
23628;SDS011;11991;57.150;-2.134;2023-04-25T13:49:02;1.50;;;1.40;;
23628;SDS011;11991;57.150;-2.134;2023-04-25T13:51:39;2.45;;;1.38;;
23628;SDS011;11991;57.150;-2.134;2023-04-25T13:54:06;1.73;;;1.10;;
23628;SDS011;11991;57.150;-2.134;2023-04-25T13:56:34;2.75;;;1.45;;
23628;SDS011;11991;57.150;-2.134;2023-04-25T13:59:01;3.50;;;1.20;;
23628;SDS011;11991;57.150;-2.134;2023-04-25T14:01:29;2.75;;;1.70;;
23628;SDS011;11991;57.150;-2.134;2023-04-25T14:03:57;4.55;;;1.60;;
23628;SDS011;11991;57.150;-2.134;2023-04-25T14:06:25;2.60;;;1.42;;
23628;SDS011;11991;57.150;-2.134;2023-04-25T14:08:52;2.53;;;1.40;;
23628;SDS011;11991;57.150;-2.134;2023-04-25T14:11:20;3.83;;;1.67;;
23628;SDS011;11991;57.150;-2.134;2023-04-25T14:13:48;4.40;;;1.40;;
23628;SDS011;11991;57.150;-2.134;2023-04-25T14:16:16;1.98;;;1.23;;
23628;SDS011;11991;57.150;-2.134;2023-04-25T14:18:43;1.70;;;1.20;;
23628;SDS011;11991;57.150;-2.134;2023-04-25T14:21:11;2.28;;;1.20;;
23628;SDS011;11991;57.150;-2.134;2023-04-25T14:23:38;3.83;;;1.90;;
23628;SDS011;11991;57.150;-2.134;2023-04-25T14:26:05;5.47;;;2.22;;
23628;SDS011;11991;57.150;-2.134;2023-04-25T14:28:32;3.70;;;1.70;;
23628;SDS011;11991;57.150;-2.134;2023-04-25T14:31:00;2.75;;;1.63;;
23628;SDS011;11991;57.150;-2.134;2023-04-25T14:33:27;2.58;;;1.58;;
23628;SDS011;11991;57.150;-2.134;2023-04-25T14:35:54;3.20;;;1.65;;
23628;SDS011;11991;57.150;-2.134;2023-04-25T14:38:22;3.72;;;1.85;;
23628;SDS011;11991;57.150;-2.134;2023-04-25T14:40:51;2.60;;;2.05;;
23628;SDS011;11991;57.150;-2.134;2023-04-25T14:43:20;3.45;;;2.15;;
23628;SDS011;11991;57.150;-2.134;2023-04-25T14:45:47;2.85;;;1.80;;
23628;SDS011;11991;57.150;-2.134;2023-04-25T14:48:15;5.60;;;3.30;;
23628;SDS011;11991;57.150;-2.134;2023-04-25T14:50:44;3.17;;;1.90;;
23628;SDS011;11991;57.150;-2.134;2023-04-25T14:53:12;3.47;;;1.33;;
23628;SDS011;11991;57.150;-2.134;2023-04-25T14:55:40;3.92;;;1.52;;
23628;SDS011;11991;57.150;-2.134;2023-04-25T14:58:08;3.22;;;1.42;;
23628;SDS011;11991;57.150;-2.134;2023-04-25T15:00:36;3.17;;;1.88;;
23628;SDS011;11991;57.150;-2.134;2023-04-25T15:03:03;3.38;;;1.52;;
23628;SDS011;11991;57.150;-2.134;2023-04-25T15:05:32;2.08;;;1.20;;
23628;SDS011;11991;57.150;-2.134;2023-04-25T15:07:59;3.17;;;1.77;;
23628;SDS011;11991;57.150;-2.134;2023-04-25T15:10:28;1.83;;;1.38;;
23628;SDS011;11991;57.150;-2.134;2023-04-25T15:12:55;3.08;;;1.60;;
23628;SDS011;11991;57.150;-2.134;2023-04-25T15:15:23;3.38;;;1.77;;